sensor_id;sensor_type;location;lat;lon;timestamp;temperature;humidity
6822;DHT22;3449;48.728;8.968;2022-11-02T00:00:20;7.10;99.90
6822;DHT22;3449;48.728;8.968;2022-11-02T00:02:47;7.00;99.90
6822;DHT22;3449;48.728;8.968;2022-11-02T00:05:14;7.00;99.90
6822;DHT22;3449;48.728;8.968;2022-11-02T00:07:41;7.00;99.90
6822;DHT22;3449;48.728;8.968;2022-11-02T00:10:09;7.00;99.90
6822;DHT22;3449;48.728;8.968;2022-11-02T00:12:36;7.00;99.90
6822;DHT22;3449;48.728;8.968;2022-11-02T00:15:05;7.00;99.90
6822;DHT22;3449;48.728;8.968;2022-11-02T00:17:32;6.90;99.90
6822;DHT22;3449;48.728;8.968;2022-11-02T00:20:00;6.90;99.90
6822;DHT22;3449;48.728;8.968;2022-11-02T00:22:28;6.90;99.90
6822;DHT22;3449;48.728;8.968;2022-11-02T00:24:55;6.80;99.90
6822;DHT22;3449;48.728;8.968;2022-11-02T00:27:24;6.90;99.90
6822;DHT22;3449;48.728;8.968;2022-11-02T00:29:51;6.90;99.90
6822;DHT22;3449;48.728;8.968;2022-11-02T00:32:18;6.90;99.90
6822;DHT22;3449;48.728;8.968;2022-11-02T00:34:45;6.90;99.90
6822;DHT22;3449;48.728;8.968;2022-11-02T00:37:11;6.90;99.90
6822;DHT22;3449;48.728;8.968;2022-11-02T00:39:38;6.90;99.90
6822;DHT22;3449;48.728;8.968;2022-11-02T00:42:05;6.90;99.90
6822;DHT22;3449;48.728;8.968;2022-11-02T00:44:33;6.90;99.90
6822;DHT22;3449;48.728;8.968;2022-11-02T00:47:00;6.90;99.90
6822;DHT22;3449;48.728;8.968;2022-11-02T00:49:27;6.90;99.90
6822;DHT22;3449;48.728;8.968;2022-11-02T00:51:54;7.00;99.90
6822;DHT22;3449;48.728;8.968;2022-11-02T00:54:21;6.90;99.90
6822;DHT22;3449;48.728;8.968;2022-11-02T00:56:48;6.90;99.90
6822;DHT22;3449;48.728;8.968;2022-11-02T00:59:15;7.00;99.90
6822;DHT22;3449;48.728;8.968;2022-11-02T01:01:43;7.00;99.90
6822;DHT22;3449;48.728;8.968;2022-11-02T01:04:12;7.00;99.90
6822;DHT22;3449;48.728;8.968;2022-11-02T01:06:39;7.00;99.90
6822;DHT22;3449;48.728;8.968;2022-11-02T01:09:06;6.90;99.90
6822;DHT22;3449;48.728;8.968;2022-11-02T01:11:33;6.90;99.90
6822;DHT22;3449;48.728;8.968;2022-11-02T01:14:00;6.90;99.90
6822;DHT22;3449;48.728;8.968;2022-11-02T01:16:27;7.00;99.90
6822;DHT22;3449;48.728;8.968;2022-11-02T01:18:56;6.90;99.90
6822;DHT22;3449;48.728;8.968;2022-11-02T01:21:23;6.90;99.90
6822;DHT22;3449;48.728;8.968;2022-11-02T01:23:50;6.90;99.90
6822;DHT22;3449;48.728;8.968;2022-11-02T01:26:18;6.90;99.90
6822;DHT22;3449;48.728;8.968;2022-11-02T01:28:45;6.90;99.90
6822;DHT22;3449;48.728;8.968;2022-11-02T01:31:12;7.00;99.90
6822;DHT22;3449;48.728;8.968;2022-11-02T01:33:42;7.00;99.90
6822;DHT22;3449;48.728;8.968;2022-11-02T01:36:11;7.00;99.90
6822;DHT22;3449;48.728;8.968;2022-11-02T01:38:38;7.10;99.90
6822;DHT22;3449;48.728;8.968;2022-11-02T01:41:05;7.10;99.90
6822;DHT22;3449;48.728;8.968;2022-11-02T01:43:34;7.20;99.90
6822;DHT22;3449;48.728;8.968;2022-11-02T01:46:05;7.30;99.90
6822;DHT22;3449;48.728;8.968;2022-11-02T01:48:34;7.40;99.90
6822;DHT22;3449;48.728;8.968;2022-11-02T01:51:04;7.50;99.90
6822;DHT22;3449;48.728;8.968;2022-11-02T01:53:35;7.50;99.90
6822;DHT22;3449;48.728;8.968;2022-11-02T01:56:04;7.50;99.90
6822;DHT22;3449;48.728;8.968;2022-11-02T01:58:31;7.60;99.90
6822;DHT22;3449;48.728;8.968;2022-11-02T02:01:00;7.60;99.90
6822;DHT22;3449;48.728;8.968;2022-11-02T02:03:29;7.60;99.90
6822;DHT22;3449;48.728;8.968;2022-11-02T02:06:00;7.60;99.90
6822;DHT22;3449;48.728;8.968;2022-11-02T02:08:29;7.60;99.90
6822;DHT22;3449;48.728;8.968;2022-11-02T02:10:58;7.60;99.90
6822;DHT22;3449;48.728;8.968;2022-11-02T02:13:26;7.60;99.90
6822;DHT22;3449;48.728;8.968;2022-11-02T02:16:01;7.60;99.90
6822;DHT22;3449;48.728;8.968;2022-11-02T02:18:37;7.50;99.90
6822;DHT22;3449;48.728;8.968;2022-11-02T02:21:15;7.60;99.90
6822;DHT22;3449;48.728;8.968;2022-11-02T02:24:16;7.60;99.90
6822;DHT22;3449;48.728;8.968;2022-11-02T02:27:12;7.70;99.90
6822;DHT22;3449;48.728;8.968;2022-11-02T02:30:02;7.70;99.90
6822;DHT22;3449;48.728;8.968;2022-11-02T02:32:35;7.70;99.90
6822;DHT22;3449;48.728;8.968;2022-11-02T02:35:12;7.70;99.90
6822;DHT22;3449;48.728;8.968;2022-11-02T02:37:42;7.70;99.90
6822;DHT22;3449;48.728;8.968;2022-11-02T02:40:15;7.80;99.90
6822;DHT22;3449;48.728;8.968;2022-11-02T02:42:47;7.70;99.90
6822;DHT22;3449;48.728;8.968;2022-11-02T02:45:21;7.80;99.90
6822;DHT22;3449;48.728;8.968;2022-11-02T02:47:53;7.80;99.90
6822;DHT22;3449;48.728;8.968;2022-11-02T02:50:26;7.80;99.90
6822;DHT22;3449;48.728;8.968;2022-11-02T02:52:55;7.80;99.90
6822;DHT22;3449;48.728;8.968;2022-11-02T02:55:28;7.80;99.90
6822;DHT22;3449;48.728;8.968;2022-11-02T02:57:59;7.80;99.90
6822;DHT22;3449;48.728;8.968;2022-11-02T03:00:29;7.80;99.90
6822;DHT22;3449;48.728;8.968;2022-11-02T03:03:00;7.80;99.90
6822;DHT22;3449;48.728;8.968;2022-11-02T03:05:30;7.80;99.90
6822;DHT22;3449;48.728;8.968;2022-11-02T03:08:02;7.80;99.90
6822;DHT22;3449;48.728;8.968;2022-11-02T03:10:33;7.80;99.90
6822;DHT22;3449;48.728;8.968;2022-11-02T03:13:17;7.80;99.90
6822;DHT22;3449;48.728;8.968;2022-11-02T03:15:54;7.90;99.90
6822;DHT22;3449;48.728;8.968;2022-11-02T03:18:33;7.90;99.90
6822;DHT22;3449;48.728;8.968;2022-11-02T03:21:05;7.90;99.90
6822;DHT22;3449;48.728;8.968;2022-11-02T03:23:38;7.90;99.90
6822;DHT22;3449;48.728;8.968;2022-11-02T03:26:10;7.90;99.90
6822;DHT22;3449;48.728;8.968;2022-11-02T03:28:46;7.90;99.90
6822;DHT22;3449;48.728;8.968;2022-11-02T03:31:25;7.90;99.90
6822;DHT22;3449;48.728;8.968;2022-11-02T03:34:02;7.90;99.90
6822;DHT22;3449;48.728;8.968;2022-11-02T03:36:34;7.90;99.90
6822;DHT22;3449;48.728;8.968;2022-11-02T03:39:06;7.90;99.90
6822;DHT22;3449;48.728;8.968;2022-11-02T03:41:35;8.00;99.90
6822;DHT22;3449;48.728;8.968;2022-11-02T03:44:06;7.90;99.90
6822;DHT22;3449;48.728;8.968;2022-11-02T03:46:37;7.90;99.90
6822;DHT22;3449;48.728;8.968;2022-11-02T03:49:06;7.90;99.90
6822;DHT22;3449;48.728;8.968;2022-11-02T03:51:39;7.90;99.90
6822;DHT22;3449;48.728;8.968;2022-11-02T03:54:12;7.90;99.90
6822;DHT22;3449;48.728;8.968;2022-11-02T03:56:43;7.90;99.90
6822;DHT22;3449;48.728;8.968;2022-11-02T03:59:12;7.90;99.90
6822;DHT22;3449;48.728;8.968;2022-11-02T04:01:42;7.90;99.90
6822;DHT22;3449;48.728;8.968;2022-11-02T04:04:09;7.90;99.90
6822;DHT22;3449;48.728;8.968;2022-11-02T04:06:37;7.90;99.90
6822;DHT22;3449;48.728;8.968;2022-11-02T04:09:05;7.90;99.90
6822;DHT22;3449;48.728;8.968;2022-11-02T04:11:32;7.90;99.90
6822;DHT22;3449;48.728;8.968;2022-11-02T04:14:16;8.00;99.90
6822;DHT22;3449;48.728;8.968;2022-11-02T04:17:02;7.90;99.90
6822;DHT22;3449;48.728;8.968;2022-11-02T04:19:46;7.90;99.90
6822;DHT22;3449;48.728;8.968;2022-11-02T04:22:13;8.00;99.90
6822;DHT22;3449;48.728;8.968;2022-11-02T04:24:57;8.00;99.90
6822;DHT22;3449;48.728;8.968;2022-11-02T04:27:45;8.00;99.90
6822;DHT22;3449;48.728;8.968;2022-11-02T04:30:13;8.00;99.90
6822;DHT22;3449;48.728;8.968;2022-11-02T04:32:43;7.90;99.90
6822;DHT22;3449;48.728;8.968;2022-11-02T04:35:24;7.90;99.90
6822;DHT22;3449;48.728;8.968;2022-11-02T04:37:51;7.90;99.90
6822;DHT22;3449;48.728;8.968;2022-11-02T04:40:35;7.90;99.90
6822;DHT22;3449;48.728;8.968;2022-11-02T04:43:02;7.90;99.90
6822;DHT22;3449;48.728;8.968;2022-11-02T04:45:29;8.00;99.90
6822;DHT22;3449;48.728;8.968;2022-11-02T04:48:00;7.90;99.90
6822;DHT22;3449;48.728;8.968;2022-11-02T04:50:27;7.90;99.90
6822;DHT22;3449;48.728;8.968;2022-11-02T04:52:55;7.90;99.90
6822;DHT22;3449;48.728;8.968;2022-11-02T04:55:22;7.90;99.90
6822;DHT22;3449;48.728;8.968;2022-11-02T04:57:49;7.80;99.90
6822;DHT22;3449;48.728;8.968;2022-11-02T05:00:17;7.90;99.90
6822;DHT22;3449;48.728;8.968;2022-11-02T05:02:45;7.80;99.90
6822;DHT22;3449;48.728;8.968;2022-11-02T05:05:14;7.80;99.90
6822;DHT22;3449;48.728;8.968;2022-11-02T05:07:41;7.80;99.90
6822;DHT22;3449;48.728;8.968;2022-11-02T05:10:09;7.80;99.90
6822;DHT22;3449;48.728;8.968;2022-11-02T05:12:36;7.70;99.90
6822;DHT22;3449;48.728;8.968;2022-11-02T05:15:03;7.70;99.90
6822;DHT22;3449;48.728;8.968;2022-11-02T05:17:30;7.70;99.90
6822;DHT22;3449;48.728;8.968;2022-11-02T05:19:57;7.60;99.90
6822;DHT22;3449;48.728;8.968;2022-11-02T05:22:25;7.60;99.90
6822;DHT22;3449;48.728;8.968;2022-11-02T05:24:52;7.60;99.90
6822;DHT22;3449;48.728;8.968;2022-11-02T05:27:19;7.60;99.90
6822;DHT22;3449;48.728;8.968;2022-11-02T05:29:46;7.60;99.90
6822;DHT22;3449;48.728;8.968;2022-11-02T05:32:13;7.50;99.90
6822;DHT22;3449;48.728;8.968;2022-11-02T05:34:40;7.50;99.90
6822;DHT22;3449;48.728;8.968;2022-11-02T05:37:06;7.50;99.90
6822;DHT22;3449;48.728;8.968;2022-11-02T05:39:35;7.50;99.90
6822;DHT22;3449;48.728;8.968;2022-11-02T05:42:02;7.40;99.90
6822;DHT22;3449;48.728;8.968;2022-11-02T05:44:29;7.50;99.90
6822;DHT22;3449;48.728;8.968;2022-11-02T05:46:56;7.50;99.90
6822;DHT22;3449;48.728;8.968;2022-11-02T05:49:23;7.40;99.90
6822;DHT22;3449;48.728;8.968;2022-11-02T05:51:50;7.40;99.90
6822;DHT22;3449;48.728;8.968;2022-11-02T05:54:17;7.40;99.90
6822;DHT22;3449;48.728;8.968;2022-11-02T05:56:45;7.30;99.90
6822;DHT22;3449;48.728;8.968;2022-11-02T05:59:12;7.30;99.90
6822;DHT22;3449;48.728;8.968;2022-11-02T06:01:39;7.30;99.90
6822;DHT22;3449;48.728;8.968;2022-11-02T06:04:06;7.30;99.90
6822;DHT22;3449;48.728;8.968;2022-11-02T06:06:33;7.30;99.90
6822;DHT22;3449;48.728;8.968;2022-11-02T06:08:59;7.30;99.90
6822;DHT22;3449;48.728;8.968;2022-11-02T06:11:26;7.30;99.90
6822;DHT22;3449;48.728;8.968;2022-11-02T06:13:54;7.30;99.90
6822;DHT22;3449;48.728;8.968;2022-11-02T06:16:21;7.40;99.90
6822;DHT22;3449;48.728;8.968;2022-11-02T06:18:48;7.40;99.90
6822;DHT22;3449;48.728;8.968;2022-11-02T06:21:15;7.50;99.90
6822;DHT22;3449;48.728;8.968;2022-11-02T06:23:42;7.60;99.90
6822;DHT22;3449;48.728;8.968;2022-11-02T06:26:11;7.60;99.90
6822;DHT22;3449;48.728;8.968;2022-11-02T06:28:38;7.70;99.90
6822;DHT22;3449;48.728;8.968;2022-11-02T06:31:06;7.70;99.90
6822;DHT22;3449;48.728;8.968;2022-11-02T06:33:33;7.70;99.90
6822;DHT22;3449;48.728;8.968;2022-11-02T06:36:00;7.80;99.90
6822;DHT22;3449;48.728;8.968;2022-11-02T06:38:27;7.90;99.90
6822;DHT22;3449;48.728;8.968;2022-11-02T06:40:55;7.90;99.90
6822;DHT22;3449;48.728;8.968;2022-11-02T06:43:22;8.00;99.90
6822;DHT22;3449;48.728;8.968;2022-11-02T06:45:49;8.20;99.90
6822;DHT22;3449;48.728;8.968;2022-11-02T06:48:19;8.30;99.90
6822;DHT22;3449;48.728;8.968;2022-11-02T06:50:46;8.30;99.90
6822;DHT22;3449;48.728;8.968;2022-11-02T06:53:13;8.50;99.90
6822;DHT22;3449;48.728;8.968;2022-11-02T06:55:40;8.60;99.90
6822;DHT22;3449;48.728;8.968;2022-11-02T06:58:07;8.70;99.90
6822;DHT22;3449;48.728;8.968;2022-11-02T07:00:34;8.80;99.90
6822;DHT22;3449;48.728;8.968;2022-11-02T07:03:02;8.90;99.90
6822;DHT22;3449;48.728;8.968;2022-11-02T07:05:32;9.00;99.90
6822;DHT22;3449;48.728;8.968;2022-11-02T07:07:59;9.10;99.90
6822;DHT22;3449;48.728;8.968;2022-11-02T07:10:26;9.10;99.90
6822;DHT22;3449;48.728;8.968;2022-11-02T07:12:54;9.10;99.90
6822;DHT22;3449;48.728;8.968;2022-11-02T07:15:23;9.20;99.90
6822;DHT22;3449;48.728;8.968;2022-11-02T07:17:52;9.30;99.90
6822;DHT22;3449;48.728;8.968;2022-11-02T07:20:19;9.30;99.90
6822;DHT22;3449;48.728;8.968;2022-11-02T07:22:53;9.40;99.90
6822;DHT22;3449;48.728;8.968;2022-11-02T07:25:20;9.60;99.90
6822;DHT22;3449;48.728;8.968;2022-11-02T07:27:48;9.60;99.90
6822;DHT22;3449;48.728;8.968;2022-11-02T07:30:15;9.70;99.90
6822;DHT22;3449;48.728;8.968;2022-11-02T07:32:43;9.80;99.90
6822;DHT22;3449;48.728;8.968;2022-11-02T07:35:12;10.00;99.90
6822;DHT22;3449;48.728;8.968;2022-11-02T07:37:39;10.20;99.90
6822;DHT22;3449;48.728;8.968;2022-11-02T07:40:10;10.20;99.90
6822;DHT22;3449;48.728;8.968;2022-11-02T07:42:43;10.40;99.90
6822;DHT22;3449;48.728;8.968;2022-11-02T07:45:10;10.50;99.90
6822;DHT22;3449;48.728;8.968;2022-11-02T07:47:41;10.50;99.90
6822;DHT22;3449;48.728;8.968;2022-11-02T07:50:09;10.50;99.90
6822;DHT22;3449;48.728;8.968;2022-11-02T07:52:43;10.60;99.90
6822;DHT22;3449;48.728;8.968;2022-11-02T07:55:11;10.70;99.90
6822;DHT22;3449;48.728;8.968;2022-11-02T07:57:38;10.80;99.90
6822;DHT22;3449;48.728;8.968;2022-11-02T08:00:06;10.90;99.90
6822;DHT22;3449;48.728;8.968;2022-11-02T08:02:34;11.00;99.90
6822;DHT22;3449;48.728;8.968;2022-11-02T08:05:01;11.10;99.90
6822;DHT22;3449;48.728;8.968;2022-11-02T08:07:28;11.30;99.90
6822;DHT22;3449;48.728;8.968;2022-11-02T08:09:55;11.40;99.90
6822;DHT22;3449;48.728;8.968;2022-11-02T08:12:23;11.60;99.90
6822;DHT22;3449;48.728;8.968;2022-11-02T08:14:50;11.80;99.90
6822;DHT22;3449;48.728;8.968;2022-11-02T08:17:17;11.90;99.90
6822;DHT22;3449;48.728;8.968;2022-11-02T08:19:44;12.10;99.90
6822;DHT22;3449;48.728;8.968;2022-11-02T08:22:11;12.30;99.90
6822;DHT22;3449;48.728;8.968;2022-11-02T08:24:38;12.40;99.90
6822;DHT22;3449;48.728;8.968;2022-11-02T08:27:05;12.40;99.90
6822;DHT22;3449;48.728;8.968;2022-11-02T08:29:33;12.50;99.90
6822;DHT22;3449;48.728;8.968;2022-11-02T08:32:01;12.50;99.90
6822;DHT22;3449;48.728;8.968;2022-11-02T08:34:28;12.50;99.90
6822;DHT22;3449;48.728;8.968;2022-11-02T08:36:55;12.40;99.90
6822;DHT22;3449;48.728;8.968;2022-11-02T08:39:22;12.50;99.90
6822;DHT22;3449;48.728;8.968;2022-11-02T08:41:48;12.40;99.90
6822;DHT22;3449;48.728;8.968;2022-11-02T08:44:16;12.40;99.90
6822;DHT22;3449;48.728;8.968;2022-11-02T08:46:44;12.40;99.90
6822;DHT22;3449;48.728;8.968;2022-11-02T08:49:11;12.40;99.90
6822;DHT22;3449;48.728;8.968;2022-11-02T08:51:38;12.50;99.90
6822;DHT22;3449;48.728;8.968;2022-11-02T08:54:05;12.50;99.90
6822;DHT22;3449;48.728;8.968;2022-11-02T08:56:32;12.60;99.90
6822;DHT22;3449;48.728;8.968;2022-11-02T08:58:59;12.70;99.90
6822;DHT22;3449;48.728;8.968;2022-11-02T09:01:26;12.80;99.90
6822;DHT22;3449;48.728;8.968;2022-11-02T09:03:54;12.80;99.90
6822;DHT22;3449;48.728;8.968;2022-11-02T09:06:21;12.80;99.90
6822;DHT22;3449;48.728;8.968;2022-11-02T09:08:48;12.80;99.90
6822;DHT22;3449;48.728;8.968;2022-11-02T09:11:14;12.80;99.90
6822;DHT22;3449;48.728;8.968;2022-11-02T09:13:42;12.80;99.90
6822;DHT22;3449;48.728;8.968;2022-11-02T09:16:08;12.90;99.90
6822;DHT22;3449;48.728;8.968;2022-11-02T09:18:36;12.90;99.90
6822;DHT22;3449;48.728;8.968;2022-11-02T09:21:05;12.80;99.90
6822;DHT22;3449;48.728;8.968;2022-11-02T09:23:32;12.90;99.90
6822;DHT22;3449;48.728;8.968;2022-11-02T09:25:59;12.90;99.90
6822;DHT22;3449;48.728;8.968;2022-11-02T09:28:26;12.90;99.90
6822;DHT22;3449;48.728;8.968;2022-11-02T09:30:53;13.00;99.90
6822;DHT22;3449;48.728;8.968;2022-11-02T09:33:20;13.00;99.90
6822;DHT22;3449;48.728;8.968;2022-11-02T09:35:47;13.00;99.90
6822;DHT22;3449;48.728;8.968;2022-11-02T09:38:16;13.10;99.90
6822;DHT22;3449;48.728;8.968;2022-11-02T09:40:45;13.10;99.90
6822;DHT22;3449;48.728;8.968;2022-11-02T09:43:19;13.10;99.90
6822;DHT22;3449;48.728;8.968;2022-11-02T09:45:52;13.20;99.90
6822;DHT22;3449;48.728;8.968;2022-11-02T09:48:25;13.20;99.90
6822;DHT22;3449;48.728;8.968;2022-11-02T09:50:55;13.40;99.90
6822;DHT22;3449;48.728;8.968;2022-11-02T09:53:36;13.30;99.90
6822;DHT22;3449;48.728;8.968;2022-11-02T09:56:06;13.30;99.90
6822;DHT22;3449;48.728;8.968;2022-11-02T09:58:36;13.30;99.90
6822;DHT22;3449;48.728;8.968;2022-11-02T10:01:11;13.40;99.90
6822;DHT22;3449;48.728;8.968;2022-11-02T10:03:52;13.40;99.90
6822;DHT22;3449;48.728;8.968;2022-11-02T10:06:24;13.50;99.90
6822;DHT22;3449;48.728;8.968;2022-11-02T10:08:59;13.60;99.90
6822;DHT22;3449;48.728;8.968;2022-11-02T10:11:38;13.70;99.90
6822;DHT22;3449;48.728;8.968;2022-11-02T10:14:10;13.70;99.90
6822;DHT22;3449;48.728;8.968;2022-11-02T10:16:44;13.70;99.90
6822;DHT22;3449;48.728;8.968;2022-11-02T10:19:16;13.80;99.90
6822;DHT22;3449;48.728;8.968;2022-11-02T10:21:46;13.70;99.90
6822;DHT22;3449;48.728;8.968;2022-11-02T10:24:22;13.70;99.90
6822;DHT22;3449;48.728;8.968;2022-11-02T10:26:52;13.70;99.90
6822;DHT22;3449;48.728;8.968;2022-11-02T10:29:29;13.70;99.90
6822;DHT22;3449;48.728;8.968;2022-11-02T10:32:01;13.70;99.90
6822;DHT22;3449;48.728;8.968;2022-11-02T10:34:28;13.70;99.90
6822;DHT22;3449;48.728;8.968;2022-11-02T10:37:06;13.70;99.90
6822;DHT22;3449;48.728;8.968;2022-11-02T10:39:42;13.80;99.90
6822;DHT22;3449;48.728;8.968;2022-11-02T10:42:28;13.90;99.90
6822;DHT22;3449;48.728;8.968;2022-11-02T10:45:15;13.90;99.90
6822;DHT22;3449;48.728;8.968;2022-11-02T10:47:56;13.90;99.90
6822;DHT22;3449;48.728;8.968;2022-11-02T10:50:36;13.90;99.90
6822;DHT22;3449;48.728;8.968;2022-11-02T10:53:11;14.00;99.90
6822;DHT22;3449;48.728;8.968;2022-11-02T10:55:48;14.00;99.90
6822;DHT22;3449;48.728;8.968;2022-11-02T10:58:19;14.20;99.90
6822;DHT22;3449;48.728;8.968;2022-11-02T11:00:47;14.30;99.90
6822;DHT22;3449;48.728;8.968;2022-11-02T11:03:17;14.50;99.90
6822;DHT22;3449;48.728;8.968;2022-11-02T11:05:56;14.70;99.90
6822;DHT22;3449;48.728;8.968;2022-11-02T11:08:37;14.90;99.90
6822;DHT22;3449;48.728;8.968;2022-11-02T11:11:14;14.80;99.90
6822;DHT22;3449;48.728;8.968;2022-11-02T11:13:45;14.70;99.90
6822;DHT22;3449;48.728;8.968;2022-11-02T11:16:18;14.60;99.90
6822;DHT22;3449;48.728;8.968;2022-11-02T11:18:55;14.70;99.90
6822;DHT22;3449;48.728;8.968;2022-11-02T11:21:36;14.80;99.90
6822;DHT22;3449;48.728;8.968;2022-11-02T11:24:19;15.00;99.90
6822;DHT22;3449;48.728;8.968;2022-11-02T11:27:03;15.20;99.90
6822;DHT22;3449;48.728;8.968;2022-11-02T11:29:31;15.40;99.90
6822;DHT22;3449;48.728;8.968;2022-11-02T11:32:02;15.20;99.90
6822;DHT22;3449;48.728;8.968;2022-11-02T11:34:31;15.40;99.90
6822;DHT22;3449;48.728;8.968;2022-11-02T11:37:05;15.60;99.90
6822;DHT22;3449;48.728;8.968;2022-11-02T11:39:33;15.50;99.90
6822;DHT22;3449;48.728;8.968;2022-11-02T11:42:03;15.90;99.90
6822;DHT22;3449;48.728;8.968;2022-11-02T11:44:31;16.00;99.90
6822;DHT22;3449;48.728;8.968;2022-11-02T11:47:01;15.90;99.90
6822;DHT22;3449;48.728;8.968;2022-11-02T11:49:31;15.60;99.90
6822;DHT22;3449;48.728;8.968;2022-11-02T11:52:00;15.30;99.90
6822;DHT22;3449;48.728;8.968;2022-11-02T11:54:28;15.00;99.90
6822;DHT22;3449;48.728;8.968;2022-11-02T11:56:56;14.60;99.90
6822;DHT22;3449;48.728;8.968;2022-11-02T11:59:28;14.60;99.90
6822;DHT22;3449;48.728;8.968;2022-11-02T12:01:57;14.90;99.90
6822;DHT22;3449;48.728;8.968;2022-11-02T12:04:33;15.60;99.90
6822;DHT22;3449;48.728;8.968;2022-11-02T12:07:14;16.50;99.90
6822;DHT22;3449;48.728;8.968;2022-11-02T12:09:50;17.10;99.90
6822;DHT22;3449;48.728;8.968;2022-11-02T12:12:30;17.10;99.90
6822;DHT22;3449;48.728;8.968;2022-11-02T12:15:14;17.40;99.90
6822;DHT22;3449;48.728;8.968;2022-11-02T12:17:54;17.70;99.90
6822;DHT22;3449;48.728;8.968;2022-11-02T12:20:39;18.10;99.90
6822;DHT22;3449;48.728;8.968;2022-11-02T12:23:17;18.20;99.90
6822;DHT22;3449;48.728;8.968;2022-11-02T12:25:52;18.10;99.90
6822;DHT22;3449;48.728;8.968;2022-11-02T12:28:27;18.00;99.90
6822;DHT22;3449;48.728;8.968;2022-11-02T12:31:05;17.40;99.90
6822;DHT22;3449;48.728;8.968;2022-11-02T12:33:48;17.70;99.90
6822;DHT22;3449;48.728;8.968;2022-11-02T12:36:29;17.90;99.90
6822;DHT22;3449;48.728;8.968;2022-11-02T12:39:00;18.10;99.90
6822;DHT22;3449;48.728;8.968;2022-11-02T12:41:54;18.30;99.90
6822;DHT22;3449;48.728;8.968;2022-11-02T12:44:40;17.70;99.90
6822;DHT22;3449;48.728;8.968;2022-11-02T12:47:23;17.40;99.90
6822;DHT22;3449;48.728;8.968;2022-11-02T12:49:59;17.00;99.90
6822;DHT22;3449;48.728;8.968;2022-11-02T12:52:34;17.00;99.90
6822;DHT22;3449;48.728;8.968;2022-11-02T12:55:07;17.20;99.90
6822;DHT22;3449;48.728;8.968;2022-11-02T12:57:38;17.30;99.90
6822;DHT22;3449;48.728;8.968;2022-11-02T13:00:14;17.50;99.90
6822;DHT22;3449;48.728;8.968;2022-11-02T13:02:52;17.30;99.90
6822;DHT22;3449;48.728;8.968;2022-11-02T13:05:23;17.10;99.90
6822;DHT22;3449;48.728;8.968;2022-11-02T13:08:01;17.00;99.90
6822;DHT22;3449;48.728;8.968;2022-11-02T13:10:32;16.70;99.90
6822;DHT22;3449;48.728;8.968;2022-11-02T13:13:02;16.60;99.90
6822;DHT22;3449;48.728;8.968;2022-11-02T13:15:32;16.40;99.90
6822;DHT22;3449;48.728;8.968;2022-11-02T13:18:08;16.20;99.90
6822;DHT22;3449;48.728;8.968;2022-11-02T13:20:41;16.10;99.90
6822;DHT22;3449;48.728;8.968;2022-11-02T13:23:18;15.90;99.90
6822;DHT22;3449;48.728;8.968;2022-11-02T13:25:55;15.70;99.90
6822;DHT22;3449;48.728;8.968;2022-11-02T13:28:32;15.60;99.90
6822;DHT22;3449;48.728;8.968;2022-11-02T13:31:00;15.60;99.90
6822;DHT22;3449;48.728;8.968;2022-11-02T13:33:35;15.70;99.90
6822;DHT22;3449;48.728;8.968;2022-11-02T13:36:06;15.90;99.90
6822;DHT22;3449;48.728;8.968;2022-11-02T13:38:36;15.80;99.90
6822;DHT22;3449;48.728;8.968;2022-11-02T13:41:18;15.70;99.90
6822;DHT22;3449;48.728;8.968;2022-11-02T13:44:00;15.50;99.90
6822;DHT22;3449;48.728;8.968;2022-11-02T13:47:00;15.40;99.90
6822;DHT22;3449;48.728;8.968;2022-11-02T13:49:34;15.30;99.90
6822;DHT22;3449;48.728;8.968;2022-11-02T13:52:03;15.30;99.90
6822;DHT22;3449;48.728;8.968;2022-11-02T13:54:34;15.30;99.90
6822;DHT22;3449;48.728;8.968;2022-11-02T13:57:04;15.20;99.90
6822;DHT22;3449;48.728;8.968;2022-11-02T13:59:33;15.10;99.90
6822;DHT22;3449;48.728;8.968;2022-11-02T14:02:03;15.10;99.90
6822;DHT22;3449;48.728;8.968;2022-11-02T14:04:38;15.10;99.90
6822;DHT22;3449;48.728;8.968;2022-11-02T14:07:15;15.00;99.90
6822;DHT22;3449;48.728;8.968;2022-11-02T14:09:44;14.90;99.90
6822;DHT22;3449;48.728;8.968;2022-11-02T14:18:14;14.70;99.90
6822;DHT22;3449;48.728;8.968;2022-11-02T14:20:44;14.70;99.90
6822;DHT22;3449;48.728;8.968;2022-11-02T14:23:37;14.60;99.90
6822;DHT22;3449;48.728;8.968;2022-11-02T14:26:06;14.60;99.90
6822;DHT22;3449;48.728;8.968;2022-11-02T14:28:52;14.60;99.90
6822;DHT22;3449;48.728;8.968;2022-11-02T14:31:39;14.50;99.90
6822;DHT22;3449;48.728;8.968;2022-11-02T14:34:28;14.40;99.90
6822;DHT22;3449;48.728;8.968;2022-11-02T14:37:10;14.40;99.90
6822;DHT22;3449;48.728;8.968;2022-11-02T14:39:48;14.30;99.90
6822;DHT22;3449;48.728;8.968;2022-11-02T14:42:41;14.20;99.90
6822;DHT22;3449;48.728;8.968;2022-11-02T14:45:26;14.10;99.90
6822;DHT22;3449;48.728;8.968;2022-11-02T14:47:56;14.00;99.90
6822;DHT22;3449;48.728;8.968;2022-11-02T14:50:24;14.00;99.90
6822;DHT22;3449;48.728;8.968;2022-11-02T14:53:03;13.90;99.90
6822;DHT22;3449;48.728;8.968;2022-11-02T14:55:31;13.90;99.90
6822;DHT22;3449;48.728;8.968;2022-11-02T14:58:01;13.80;99.90
6822;DHT22;3449;48.728;8.968;2022-11-02T15:00:33;13.70;99.90
6822;DHT22;3449;48.728;8.968;2022-11-02T15:03:04;13.70;99.90
6822;DHT22;3449;48.728;8.968;2022-11-02T15:05:34;13.60;99.90
6822;DHT22;3449;48.728;8.968;2022-11-02T15:08:05;13.60;99.90
6822;DHT22;3449;48.728;8.968;2022-11-02T15:10:44;13.50;99.90
6822;DHT22;3449;48.728;8.968;2022-11-02T15:13:44;13.40;99.90
6822;DHT22;3449;48.728;8.968;2022-11-02T15:16:37;13.40;99.90
6822;DHT22;3449;48.728;8.968;2022-11-02T15:19:36;13.20;99.90
6822;DHT22;3449;48.728;8.968;2022-11-02T15:22:34;13.20;99.90
6822;DHT22;3449;48.728;8.968;2022-11-02T15:25:09;13.10;99.90
6822;DHT22;3449;48.728;8.968;2022-11-02T15:27:40;13.00;99.90
6822;DHT22;3449;48.728;8.968;2022-11-02T15:30:12;13.00;99.90
6822;DHT22;3449;48.728;8.968;2022-11-02T15:32:44;13.00;99.90
6822;DHT22;3449;48.728;8.968;2022-11-02T15:35:16;12.90;99.90
6822;DHT22;3449;48.728;8.968;2022-11-02T15:37:44;12.80;99.90
6822;DHT22;3449;48.728;8.968;2022-11-02T15:40:19;12.70;99.90
6822;DHT22;3449;48.728;8.968;2022-11-02T15:42:53;12.60;99.90
6822;DHT22;3449;48.728;8.968;2022-11-02T15:45:35;12.50;99.90
6822;DHT22;3449;48.728;8.968;2022-11-02T15:48:14;12.40;99.90
6822;DHT22;3449;48.728;8.968;2022-11-02T15:50:49;12.30;99.90
6822;DHT22;3449;48.728;8.968;2022-11-02T15:53:32;12.20;99.90
6822;DHT22;3449;48.728;8.968;2022-11-02T15:56:14;12.10;99.90
6822;DHT22;3449;48.728;8.968;2022-11-02T15:59:01;12.00;99.90
6822;DHT22;3449;48.728;8.968;2022-11-02T16:01:30;11.90;99.90
6822;DHT22;3449;48.728;8.968;2022-11-02T16:04:00;11.80;99.90
6822;DHT22;3449;48.728;8.968;2022-11-02T16:06:29;11.70;99.90
6822;DHT22;3449;48.728;8.968;2022-11-02T16:08:58;11.60;99.90
6822;DHT22;3449;48.728;8.968;2022-11-02T16:11:27;11.50;99.90
6822;DHT22;3449;48.728;8.968;2022-11-02T16:14:14;11.40;99.90
6822;DHT22;3449;48.728;8.968;2022-11-02T16:16:45;11.20;99.90
6822;DHT22;3449;48.728;8.968;2022-11-02T16:19:17;11.20;99.90
6822;DHT22;3449;48.728;8.968;2022-11-02T16:21:44;11.00;99.90
6822;DHT22;3449;48.728;8.968;2022-11-02T16:24:11;11.00;99.90
6822;DHT22;3449;48.728;8.968;2022-11-02T16:26:41;10.90;99.90
6822;DHT22;3449;48.728;8.968;2022-11-02T16:29:09;10.80;99.90
6822;DHT22;3449;48.728;8.968;2022-11-02T16:31:36;10.80;99.90
6822;DHT22;3449;48.728;8.968;2022-11-02T16:34:20;10.70;99.90
6822;DHT22;3449;48.728;8.968;2022-11-02T16:36:48;10.60;99.90
6822;DHT22;3449;48.728;8.968;2022-11-02T16:39:19;10.50;99.90
6822;DHT22;3449;48.728;8.968;2022-11-02T16:41:50;10.40;99.90
6822;DHT22;3449;48.728;8.968;2022-11-02T16:44:23;10.30;99.90